Time;durP1;ratioP1;P1;durP2;ratioP2;P2;SDS_P1;SDS_P2;PMS_P1;PMS_P2;Temp;Humidity;BMP_temperature;BMP_pressure;BME280_temperature;BME280_humidity;BME280_pressure;Samples;Min_cycle;Max_cycle;Signal;HPM_P1;HPM_P2
2021/06/29 00:00:23;;;;;;;27.33;22.80;;;20.50;92.10;;;;;;5056207;28;20111;-75
2021/06/29 00:03:01;;;;;;;26.83;22.90;;;20.50;92.50;;;;;;5072971;28;20016;-75
2021/06/29 00:05:27;;;;;;;31.40;25.83;;;20.50;92.30;;;;;;5073921;28;20075;-75
2021/06/29 00:07:52;;;;;;;32.72;26.77;;;20.50;92.40;;;;;;5073079;28;20423;-75
2021/06/29 00:10:18;;;;;;;32.17;28.35;;;20.40;92.50;;;;;;5056070;28;20027;-75
2021/06/29 00:12:44;;;;;;;34.83;29.17;;;20.40;92.50;;;;;;5072960;28;20039;-75
2021/06/29 00:15:10;;;;;;;32.70;28.35;;;20.40;92.60;;;;;;5072718;28;20024;-75
2021/06/29 00:17:36;;;;;;;36.78;30.58;;;20.30;92.60;;;;;;5073832;28;20372;-75
2021/06/29 00:20:02;;;;;;;34.50;29.20;;;20.30;92.60;;;;;;5055599;28;20051;-75
2021/06/29 00:22:28;;;;;;;37.63;28.63;;;20.30;92.70;;;;;;5056042;28;20040;-75
2021/06/29 00:24:53;;;;;;;39.60;31.10;;;20.30;92.80;;;;;;5055986;28;20028;-75
2021/06/29 00:27:19;;;;;;;41.67;32.40;;;20.30;92.80;;;;;;5072387;28;20028;-75
2021/06/29 00:29:45;;;;;;;38.55;31.48;;;20.30;92.90;;;;;;5072557;28;20020;-75
2021/06/29 00:32:10;;;;;;;36.28;30.70;;;20.30;92.90;;;;;;5056261;28;20028;-75
2021/06/29 00:34:36;;;;;;;39.17;31.15;;;20.30;93.00;;;;;;5072352;28;20029;-75
2021/06/29 00:37:01;;;;;;;39.03;29.38;;;20.30;93.00;;;;;;5073918;28;20028;-75
2021/06/29 00:39:27;;;;;;;35.53;29.00;;;20.30;93.10;;;;;;5072451;28;20033;-75
2021/06/29 00:41:53;;;;;;;38.55;29.38;;;20.30;93.10;;;;;;5056137;28;20025;-75
2021/06/29 00:44:23;;;;;;;33.20;28.17;;;20.20;93.40;;;;;;5072597;28;20028;-75
2021/06/29 00:46:49;;;;;;;35.05;27.95;;;20.30;93.10;;;;;;5072191;28;20021;-75
2021/06/29 00:49:16;;;;;;;34.55;26.60;;;20.20;93.10;;;;;;5073727;28;20423;-75
2021/06/29 00:51:42;;;;;;;34.80;27.30;;;20.20;93.20;;;;;;5072491;28;20028;-75
2021/06/29 00:54:09;;;;;;;34.08;27.85;;;20.20;93.20;;;;;;5072141;28;20364;-75
2021/06/29 00:56:37;;;;;;;34.03;26.10;;;20.20;93.20;;;;;;5073644;28;20035;-75
2021/06/29 00:59:03;;;;;;;35.55;26.48;;;20.20;93.20;;;;;;5073708;28;20024;-75
2021/06/29 01:01:29;;;;;;;33.78;25.98;;;20.20;93.20;;;;;;5073326;28;20112;-75
2021/06/29 01:03:54;;;;;;;33.22;24.05;;;20.30;93.20;;;;;;5055566;28;20032;-75
2021/06/29 01:06:20;;;;;;;31.02;23.50;;;20.20;93.30;;;;;;5055398;28;20479;-75
2021/06/29 01:08:46;;;;;;;33.55;23.92;;;20.20;93.30;;;;;;5072046;28;20012;-75
2021/06/29 01:11:15;;;;;;;36.83;25.10;;;20.20;93.30;;;;;;5055640;28;20495;-75
2021/06/29 01:13:45;;;;;;;35.95;23.90;;;20.10;93.30;;;;;;5055423;28;20412;-75
2021/06/29 01:16:11;;;;;;;34.25;23.48;;;20.10;93.30;;;;;;5055866;28;20066;-76
2021/06/29 01:18:40;;;;;;;36.72;25.67;;;20.10;93.30;;;;;;5072091;28;20028;-75
2021/06/29 01:21:11;;;;;;;29.75;23.88;;;20.10;93.40;;;;;;5073339;28;20040;-75
2021/06/29 01:23:38;;;;;;;30.92;24.80;;;20.10;93.40;;;;;;5073245;28;20032;-75
2021/06/29 01:26:06;;;;;;;31.95;25.63;;;20.10;93.40;;;;;;5055713;28;20468;-75
2021/06/29 01:28:45;;;;;;;31.25;25.45;;;20.10;93.40;;;;;;5072066;28;20108;-75
2021/06/29 01:31:15;;;;;;;36.60;26.60;;;20.10;93.50;;;;;;5057319;28;20024;-75
2021/06/29 01:33:41;;;;;;;31.50;25.75;;;20.10;93.50;;;;;;5071969;28;20081;-75
2021/06/29 01:36:07;;;;;;;30.40;24.30;;;20.10;93.50;;;;;;5072874;28;20427;-75
2021/06/29 01:38:32;;;;;;;29.38;23.67;;;20.10;93.50;;;;;;5072197;28;20086;-75
2021/06/29 01:40:58;;;;;;;32.75;23.85;;;20.10;93.80;;;;;;5055030;28;20388;-75
2021/06/29 01:43:28;;;;;;;30.33;23.30;;;20.10;93.50;;;;;;5071950;28;20031;-75
2021/06/29 01:45:55;;;;;;;30.08;22.85;;;20.10;93.60;;;;;;5074604;28;20032;-75
2021/06/29 01:48:25;;;;;;;33.42;24.40;;;20.10;93.60;;;;;;5076982;28;20043;-75
2021/06/29 01:50:56;;;;;;;33.67;23.75;;;20.10;93.90;;;;;;5076596;28;20017;-76
2021/06/29 01:53:22;;;;;;;34.55;24.23;;;20.10;93.70;;;;;;5076853;28;20028;-75
2021/06/29 01:55:49;;;;;;;40.38;25.77;;;20.00;93.70;;;;;;5058788;28;20027;-75
2021/06/29 01:58:22;;;;;;;37.33;29.13;;;20.00;93.80;;;;;;5075111;28;20033;-75
2021/06/29 02:00:48;;;;;;;35.45;26.17;;;20.00;93.80;;;;;;5075150;28;20543;-75
2021/06/29 02:03:14;;;;;;;43.50;29.23;;;20.00;93.90;;;;;;5075437;28;20115;-75
2021/06/29 02:05:39;;;;;;;46.03;29.67;;;19.90;93.90;;;;;;5074896;28;20033;-75
2021/06/29 02:08:05;;;;;;;43.38;28.48;;;19.90;94.10;;;;;;5074924;28;20416;-75
2021/06/29 02:10:31;;;;;;;42.90;30.00;;;19.90;94.10;;;;;;5075200;28;20016;-75
2021/06/29 02:12:58;;;;;;;45.70;29.85;;;19.90;94.20;;;;;;5076640;28;20025;-76
2021/06/29 02:15:23;;;;;;;42.15;30.13;;;19.90;94.20;;;;;;5074968;28;20021;-76
2021/06/29 02:17:49;;;;;;;42.25;27.83;;;19.80;94.20;;;;;;5075170;28;20460;-77
2021/06/29 02:20:16;;;;;;;37.58;27.52;;;19.80;94.20;;;;;;5058163;28;20052;-76
2021/06/29 02:22:42;;;;;;;40.80;27.25;;;19.80;94.30;;;;;;5075098;28;20039;-75
2021/06/29 02:25:08;;;;;;;35.90;26.50;;;19.80;94.30;;;;;;5076169;28;20107;-75
2021/06/29 02:27:34;;;;;;;40.50;26.75;;;19.80;94.40;;;;;;5075776;28;20032;-75
2021/06/29 02:30:00;;;;;;;39.88;26.65;;;19.80;94.40;;;;;;5074821;28;20033;-75
2021/06/29 02:32:26;;;;;;;43.13;28.25;;;19.80;94.40;;;;;;5075876;28;20060;-75
2021/06/29 02:34:52;;;;;;;37.22;26.30;;;19.80;94.50;;;;;;5074709;28;20020;-75
2021/06/29 02:37:18;;;;;;;35.60;26.25;;;19.80;94.60;;;;;;5057976;28;20048;-75
2021/06/29 02:39:43;;;;;;;32.72;25.10;;;19.80;94.60;;;;;;5074460;28;20480;-75
2021/06/29 02:42:09;;;;;;;30.02;24.08;;;19.90;94.70;;;;;;5074701;28;20025;-75
2021/06/29 02:44:36;;;;;;;30.60;23.73;;;19.80;94.70;;;;;;5075673;28;20029;-75
2021/06/29 02:47:02;;;;;;;28.20;22.67;;;19.90;94.70;;;;;;5074406;28;20507;-75
2021/06/29 02:49:28;;;;;;;28.48;22.17;;;19.90;94.80;;;;;;5075712;28;20024;-75
2021/06/29 02:51:53;;;;;;;28.55;22.73;;;19.90;94.70;;;;;;5074623;28;20096;-75
2021/06/29 02:54:19;;;;;;;31.73;24.15;;;19.90;94.80;;;;;;5074370;28;20086;-75
2021/06/29 02:56:45;;;;;;;34.17;24.73;;;19.90;94.70;;;;;;5057650;28;20035;-75
2021/06/29 02:59:13;;;;;;;26.95;21.52;;;19.90;94.70;;;;;;5075275;28;20111;-75
2021/06/29 03:01:40;;;;;;;31.85;24.63;;;19.90;94.70;;;;;;5075533;28;20561;-75
2021/06/29 03:04:06;;;;;;;31.33;24.67;;;19.90;94.70;;;;;;5075416;28;20102;-75
2021/06/29 03:06:32;;;;;;;30.02;24.58;;;19.90;94.70;;;;;;5074108;28;20020;-75
2021/06/29 03:08:59;;;;;;;32.22;24.35;;;19.90;94.70;;;;;;5075458;28;20025;-75
2021/06/29 03:11:25;;;;;;;33.88;26.27;;;19.90;94.70;;;;;;5075491;28;20112;-75
2021/06/29 03:13:50;;;;;;;32.55;24.95;;;19.80;94.70;;;;;;5075413;28;20431;-75
2021/06/29 03:16:16;;;;;;;33.78;25.20;;;19.90;94.80;;;;;;5057332;28;20519;-75
2021/06/29 03:18:42;;;;;;;33.40;25.63;;;19.90;94.80;;;;;;5073762;28;20029;-75
2021/06/29 03:21:07;;;;;;;32.67;24.98;;;19.90;94.80;;;;;;5073460;28;20128;-75
2021/06/29 03:23:38;;;;;;;33.33;25.58;;;19.80;94.80;;;;;;5073863;28;20438;-75
2021/06/29 03:26:04;;;;;;;35.03;24.65;;;19.90;94.80;;;;;;5075015;28;20032;-75
2021/06/29 03:28:30;;;;;;;35.75;26.40;;;19.90;94.80;;;;;;5073626;28;20021;-75
2021/06/29 03:30:55;;;;;;;43.25;25.80;;;19.90;94.80;;;;;;5073476;28;20028;-75
2021/06/29 03:33:21;;;;;;;41.88;27.40;;;19.80;94.80;;;;;;5073521;28;20434;-75
2021/06/29 03:35:47;;;;;;;43.53;28.45;;;19.80;94.80;;;;;;5074737;28;20441;-75
2021/06/29 03:38:13;;;;;;;39.22;26.75;;;19.80;94.80;;;;;;5073477;28;20163;-75
2021/06/29 03:40:38;;;;;;;46.47;29.58;;;19.90;94.90;;;;;;5074924;28;20042;-75
2021/06/29 03:43:04;;;;;;;37.13;27.25;;;19.80;95.00;;;;;;5073667;28;20464;-75
2021/06/29 03:45:30;;;;;;;38.38;27.05;;;19.90;95.00;;;;;;5073320;28;20060;-75
2021/06/29 03:47:56;;;;;;;39.20;28.02;;;19.80;95.10;;;;;;5073514;28;20039;-75
2021/06/29 03:50:22;;;;;;;43.47;28.67;;;19.90;95.10;;;;;;5074647;28;20028;-75
2021/06/29 03:52:47;;;;;;;41.28;28.40;;;19.90;95.10;;;;;;5073465;28;20044;-75
2021/06/29 03:55:13;;;;;;;42.40;28.83;;;19.90;95.10;;;;;;5074480;28;20461;-75
2021/06/29 03:57:39;;;;;;;44.22;29.08;;;19.90;95.40;;;;;;5073166;28;20028;-75
2021/06/29 04:00:07;;;;;;;43.10;28.33;;;19.90;95.20;;;;;;5072915;28;20028;-75
2021/06/29 04:02:36;;;;;;;41.58;29.70;;;19.90;95.30;;;;;;5091177;28;20032;-75
2021/06/29 04:05:04;;;;;;;40.13;28.10;;;19.90;95.30;;;;;;5094030;28;20023;-75
2021/06/29 04:07:29;;;;;;;37.50;27.45;;;19.90;95.30;;;;;;5092606;28;20073;-75
2021/06/29 04:09:55;;;;;;;38.78;27.30;;;20.00;95.30;;;;;;5092605;28;20390;-75
2021/06/29 04:12:21;;;;;;;36.65;26.35;;;20.00;95.30;;;;;;5094076;28;20028;-75
2021/06/29 04:14:47;;;;;;;40.08;26.55;;;20.00;95.30;;;;;;5094157;28;20039;-76
2021/06/29 04:17:13;;;;;;;41.30;27.58;;;20.00;95.30;;;;;;5094143;28;20035;-75
2021/06/29 04:19:40;;;;;;;39.65;28.00;;;20.00;95.30;;;;;;5093830;28;20063;-75
2021/06/29 04:22:06;;;;;;;41.00;27.65;;;20.00;95.50;;;;;;5093134;28;20424;-75
2021/06/29 04:24:32;;;;;;;36.70;26.02;;;20.00;95.20;;;;;;5075985;28;20474;-75
2021/06/29 04:26:57;;;;;;;40.33;28.25;;;19.90;95.40;;;;;;5092880;28;20024;-75
2021/06/29 04:29:23;;;;;;;37.63;26.85;;;20.00;95.20;;;;;;5093011;28;20170;-75
2021/06/29 04:31:49;;;;;;;37.30;27.48;;;19.90;95.20;;;;;;5092885;28;20024;-75
2021/06/29 04:34:16;;;;;;;39.33;26.42;;;19.90;95.20;;;;;;5092753;28;20035;-76
2021/06/29 04:36:41;;;;;;;36.75;26.15;;;19.90;95.30;;;;;;5092537;28;20040;-76
2021/06/29 04:39:07;;;;;;;37.83;26.77;;;19.90;95.30;;;;;;5093819;28;20089;-76
2021/06/29 04:41:33;;;;;;;38.88;26.42;;;20.00;95.30;;;;;;5075841;28;20120;-76
2021/06/29 04:43:59;;;;;;;38.67;25.95;;;20.00;95.30;;;;;;5093673;28;20460;-76
2021/06/29 04:46:25;;;;;;;36.30;26.17;;;20.00;95.30;;;;;;5092260;28;20036;-76
2021/06/29 04:48:51;;;;;;;37.13;25.38;;;20.00;95.60;;;;;;5092521;28;20426;-76
2021/06/29 04:51:16;;;;;;;35.22;26.80;;;20.00;95.60;;;;;;5092623;28;20032;-76
2021/06/29 04:53:42;;;;;;;36.85;27.75;;;20.00;95.30;;;;;;5093507;28;20024;-75
2021/06/29 04:56:17;;;;;;;37.65;26.38;;;20.00;95.20;;;;;;5085554;28;20019;-75
2021/06/29 04:58:52;;;;;;;36.17;25.63;;;20.00;95.30;;;;;;5076309;28;20085;-75
2021/06/29 05:01:21;;;;;;;33.47;25.02;;;20.00;95.20;;;;;;5091483;28;20111;-76
2021/06/29 05:03:47;;;;;;;37.30;25.42;;;20.00;95.20;;;;;;5093607;28;20020;-75
2021/06/29 05:06:15;;;;;;;37.75;25.83;;;20.00;95.20;;;;;;5093572;28;20379;-75
2021/06/29 05:08:40;;;;;;;39.83;27.10;;;20.00;95.10;;;;;;5092602;28;20020;-75
2021/06/29 05:11:06;;;;;;;41.13;28.08;;;20.10;95.10;;;;;;5089219;28;20024;-75
2021/06/29 05:13:32;;;;;;;43.05;28.55;;;20.00;95.10;;;;;;5074846;28;20379;-75
2021/06/29 05:15:57;;;;;;;38.67;27.80;;;20.00;95.20;;;;;;5091667;28;20039;-75
2021/06/29 05:18:23;;;;;;;39.15;27.42;;;20.10;95.30;;;;;;5091964;28;20032;-76
2021/06/29 05:20:48;;;;;;;43.05;28.50;;;20.10;95.30;;;;;;5094583;28;20052;-75
2021/06/29 05:23:14;;;;;;;40.85;28.45;;;20.10;95.30;;;;;;5096258;28;20468;-76
2021/06/29 05:25:40;;;;;;;33.38;25.00;;;20.10;95.30;;;;;;5095435;28;20020;-75
2021/06/29 05:28:05;;;;;;;45.58;27.65;;;20.10;95.30;;;;;;5081751;28;20059;-75
2021/06/29 05:30:31;;;;;;;36.95;25.05;;;20.10;95.20;;;;;;5077059;28;20024;-75
2021/06/29 05:32:57;;;;;;;41.83;26.35;;;20.10;95.20;;;;;;5075470;28;20089;-75
2021/06/29 05:35:24;;;;;;;38.20;26.02;;;20.10;95.20;;;;;;5076461;28;20107;-75
2021/06/29 05:37:50;;;;;;;40.13;27.02;;;20.10;95.20;;;;;;5074922;28;20024;-76
2021/06/29 05:40:16;;;;;;;34.85;24.83;;;20.10;95.20;;;;;;5076412;28;20078;-75
2021/06/29 05:42:42;;;;;;;35.85;28.10;;;20.20;95.20;;;;;;5058398;28;20024;-75
2021/06/29 05:45:09;;;;;;;34.55;25.35;;;20.20;95.20;;;;;;5076707;28;20021;-75
2021/06/29 05:47:36;;;;;;;34.47;25.33;;;20.20;95.20;;;;;;5074707;28;20025;-76
2021/06/29 05:50:05;;;;;;;36.05;27.58;;;20.20;95.20;;;;;;5075607;28;20029;-76
2021/06/29 05:52:30;;;;;;;35.13;25.98;;;20.30;95.20;;;;;;5075079;28;20023;-76
2021/06/29 05:54:56;;;;;;;34.42;25.75;;;20.30;95.20;;;;;;5076513;28;20017;-76
2021/06/29 05:57:22;;;;;;;32.38;25.88;;;20.40;95.30;;;;;;5076472;28;20036;-76
2021/06/29 05:59:48;;;;;;;34.97;26.63;;;20.40;95.30;;;;;;5076117;28;20115;-76
2021/06/29 06:02:14;;;;;;;36.67;27.38;;;20.50;95.20;;;;;;5074742;28;20174;-76
2021/06/29 06:04:40;;;;;;;35.08;25.92;;;20.60;95.10;;;;;;5074508;28;20043;-76
2021/06/29 06:07:06;;;;;;;31.60;24.00;;;20.60;95.10;;;;;;5058409;28;20032;-76
2021/06/29 06:09:32;;;;;;;35.58;26.70;;;20.60;95.00;;;;;;5074718;28;20036;-76
2021/06/29 06:11:58;;;;;;;32.38;25.00;;;20.60;95.20;;;;;;5075860;28;20020;-76
2021/06/29 06:14:24;;;;;;;32.95;24.35;;;20.70;94.90;;;;;;5074795;28;20070;-74
2021/06/29 06:16:50;;;;;;;32.03;25.02;;;20.70;94.80;;;;;;5074557;28;20025;-76
2021/06/29 06:19:15;;;;;;;37.28;26.52;;;20.70;94.70;;;;;;5074567;28;20479;-76
2021/06/29 06:21:41;;;;;;;33.70;25.75;;;20.80;94.60;;;;;;5074887;28;20405;-75
2021/06/29 06:24:07;;;;;;;39.40;26.73;;;20.80;94.60;;;;;;5075659;28;20032;-75
2021/06/29 06:26:33;;;;;;;35.92;26.75;;;20.80;94.50;;;;;;5074598;28;20032;-76
2021/06/29 06:28:58;;;;;;;34.42;26.02;;;20.80;94.40;;;;;;5058043;28;20025;-75
2021/06/29 06:31:24;;;;;;;37.92;28.10;;;20.80;94.50;;;;;;5075501;28;20440;-76
2021/06/29 06:33:49;;;;;;;32.63;24.80;;;20.80;94.40;;;;;;5074441;28;20040;-75
2021/06/29 06:36:15;;;;;;;31.77;26.25;;;20.80;94.30;;;;;;5074582;28;20040;-76
2021/06/29 06:38:41;;;;;;;36.78;28.35;;;20.80;94.20;;;;;;5074769;28;20028;-77
2021/06/29 06:41:06;;;;;;;29.48;23.20;;;20.80;94.00;;;;;;5074602;28;20028;-76
2021/06/29 06:43:32;;;;;;;34.58;25.00;;;20.80;94.00;;;;;;5074906;28;20084;-76
2021/06/29 06:45:58;;;;;;;32.42;24.98;;;20.80;93.90;;;;;;5074767;28;20388;-76
2021/06/29 06:48:23;;;;;;;33.72;25.90;;;20.80;93.80;;;;;;5074475;28;20074;-76
2021/06/29 06:50:49;;;;;;;30.30;25.15;;;20.80;93.80;;;;;;5074547;28;20029;-76
2021/06/29 06:53:15;;;;;;;36.00;26.70;;;20.80;93.80;;;;;;5074328;28;20036;-76
2021/06/29 06:55:41;;;;;;;36.17;28.30;;;20.70;93.70;;;;;;5048072;28;20037;-77
2021/06/29 06:58:06;;;;;;;37.80;28.35;;;20.70;93.70;;;;;;5053733;28;20029;-75
2021/06/29 07:00:32;;;;;;;33.83;26.50;;;20.70;93.70;;;;;;5056006;28;20103;-75
2021/06/29 07:02:58;;;;;;;35.33;27.30;;;20.70;93.70;;;;;;5055365;28;20017;-75
2021/06/29 07:05:24;;;;;;;35.13;26.33;;;20.70;93.80;;;;;;5055275;28;20060;-76
2021/06/29 07:07:50;;;;;;;35.42;28.00;;;20.70;93.80;;;;;;5071072;28;20033;-75
2021/06/29 07:10:18;;;;;;;33.63;27.17;;;20.60;93.70;;;;;;5048798;28;20399;-76
2021/06/29 07:12:44;;;;;;;35.45;27.75;;;20.60;93.80;;;;;;5074295;28;20437;-75
2021/06/29 07:15:10;;;;;;;37.28;27.90;;;20.60;93.80;;;;;;5044943;28;20017;-76
2021/06/29 07:17:36;;;;;;;37.08;29.92;;;20.60;93.80;;;;;;5053547;28;20037;-75
2021/06/29 07:20:04;;;;;;;35.97;29.05;;;20.60;93.80;;;;;;5053302;28;20045;-75
2021/06/29 07:22:30;;;;;;;38.05;30.83;;;20.60;93.80;;;;;;5054482;28;20029;-75
2021/06/29 07:24:55;;;;;;;39.72;30.00;;;20.70;93.80;;;;;;5053298;28;20085;-76
2021/06/29 07:27:21;;;;;;;35.58;27.67;;;20.60;93.80;;;;;;5054362;28;20641;-76
2021/06/29 07:29:47;;;;;;;38.50;29.83;;;20.60;94.10;;;;;;5053169;28;20022;-75
2021/06/29 07:32:12;;;;;;;37.63;29.13;;;20.60;93.70;;;;;;5053159;28;20029;-75
2021/06/29 07:34:38;;;;;;;38.00;28.70;;;20.60;93.70;;;;;;5054324;28;20044;-76
2021/06/29 07:37:05;;;;;;;47.35;34.63;;;20.60;93.80;;;;;;5053433;28;20041;-75
2021/06/29 07:39:30;;;;;;;46.92;34.97;;;20.50;93.90;;;;;;5059604;28;20115;-74
2021/06/29 07:41:56;;;;;;;48.28;37.33;;;20.40;94.30;;;;;;5073756;28;20136;-76
2021/06/29 07:44:22;;;;;;;50.80;35.90;;;20.30;94.60;;;;;;5055995;28;20098;-75
2021/06/29 07:46:47;;;;;;;48.65;34.85;;;20.30;94.70;;;;;;5073425;28;20052;-75
2021/06/29 07:49:13;;;;;;;41.67;32.35;;;20.20;94.80;;;;;;5073410;28;20518;-77
2021/06/29 07:51:39;;;;;;;41.15;32.63;;;20.20;94.90;;;;;;5073064;28;20037;-77
2021/06/29 07:54:04;;;;;;;39.20;32.25;;;20.10;95.00;;;;;;5073449;28;20021;-75
2021/06/29 07:56:30;;;;;;;40.05;30.60;;;20.10;95.10;;;;;;5056500;28;20039;-75
2021/06/29 07:58:55;;;;;;;39.83;30.60;;;20.10;95.10;;;;;;5074304;28;20043;-75
2021/06/29 08:01:21;;;;;;;37.42;28.63;;;20.20;95.10;;;;;;5074135;28;20028;-76
2021/06/29 08:03:47;;;;;;;34.63;28.80;;;20.20;95.10;;;;;;5073093;28;20028;-76
2021/06/29 08:06:14;;;;;;;39.40;31.45;;;20.30;95.20;;;;;;5073700;28;20391;-77
2021/06/29 08:08:40;;;;;;;36.30;27.80;;;20.40;95.40;;;;;;5073569;28;20486;-76
2021/06/29 08:11:08;;;;;;;36.75;28.65;;;20.50;95.10;;;;;;5073975;28;20055;-77
2021/06/29 08:13:34;;;;;;;32.00;25.38;;;20.60;94.80;;;;;;5074266;28;20012;-77
2021/06/29 08:16:00;;;;;;;31.90;25.23;;;20.70;94.70;;;;;;5039686;28;20110;-76
2021/06/29 08:18:28;;;;;;;35.92;28.25;;;20.70;94.40;;;;;;5072672;28;20029;-75
2021/06/29 08:20:55;;;;;;;36.13;28.30;;;20.80;94.20;;;;;;5073842;28;20392;-75
2021/06/29 08:23:21;;;;;;;41.10;31.77;;;20.80;94.10;;;;;;5073971;28;20023;-76
2021/06/29 08:25:47;;;;;;;44.45;32.22;;;20.80;93.90;;;;;;5056290;28;20028;-75
2021/06/29 08:28:13;;;;;;;41.10;31.08;;;20.80;93.70;;;;;;5072875;28;20033;-77
2021/06/29 08:30:40;;;;;;;41.50;31.67;;;20.80;93.80;;;;;;5072725;28;20480;-74
2021/06/29 08:33:10;;;;;;;41.13;32.75;;;20.70;93.30;;;;;;5072652;28;20052;-75
2021/06/29 08:35:37;;;;;;;46.75;32.72;;;20.70;93.20;;;;;;5073754;28;20091;-75
2021/06/29 08:38:02;;;;;;;44.67;33.50;;;20.60;93.30;;;;;;5073537;28;20036;-77
2021/06/29 08:40:28;;;;;;;40.28;28.92;;;20.60;93.40;;;;;;5055641;28;20028;-75
2021/06/29 08:42:54;;;;;;;45.83;33.97;;;20.50;93.50;;;;;;5072550;28;20037;-75
2021/06/29 08:45:20;;;;;;;52.38;36.60;;;20.50;93.60;;;;;;5072487;28;20081;-76
2021/06/29 08:47:46;;;;;;;47.00;34.92;;;20.40;94.00;;;;;;5073631;28;20123;-75
2021/06/29 08:50:15;;;;;;;49.53;36.97;;;20.40;94.20;;;;;;5071962;28;20392;-76
2021/06/29 08:52:41;;;;;;;56.13;38.05;;;20.30;94.20;;;;;;5055678;28;20021;-76
2021/06/29 08:55:09;;;;;;;59.78;40.97;;;20.30;94.30;;;;;;5055410;28;20483;-76
2021/06/29 08:57:35;;;;;;;59.63;39.47;;;20.10;94.50;;;;;;5073056;28;20477;-74
2021/06/29 09:00:00;;;;;;;60.03;39.08;;;20.10;94.60;;;;;;5073041;28;20028;-74
2021/06/29 09:02:27;;;;;;;65.07;41.92;;;20.10;94.80;;;;;;5072717;28;20032;-75
2021/06/29 09:04:56;;;;;;;68.93;46.85;;;20.00;95.00;;;;;;5055300;28;20376;-75
2021/06/29 09:07:27;;;;;;;76.75;49.13;;;20.00;95.30;;;;;;5073106;28;20059;-74
2021/06/29 09:09:58;;;;;;;85.32;53.13;;;20.00;95.50;;;;;;5073407;28;20074;-75
2021/06/29 09:12:42;;;;;;;86.72;53.53;;;20.00;95.70;;;;;;5072823;28;20029;-75
2021/06/29 09:15:27;;;;;;;;;;;20.10;95.90;;;;;;5071995;28;20381;-74
2021/06/29 09:17:55;;;;;;;76.20;52.17;;;20.10;96.20;;;;;;5071555;28;19915;-77
2021/06/29 09:20:28;;;;;;;72.25;48.67;;;20.10;96.20;;;;;;5072528;28;20110;-75
2021/06/29 09:22:58;;;;;;;;;;;20.20;96.40;;;;;;5072276;28;20035;-75
2021/06/29 09:25:27;;;;;;;65.60;44.35;;;20.40;96.50;;;;;;5072001;28;19908;-76
2021/06/29 09:27:54;;;;;;;65.70;45.08;;;20.50;96.50;;;;;;5072972;28;20100;-75
2021/06/29 09:30:41;;;;;;;60.60;44.67;;;20.70;96.60;;;;;;5071637;28;20025;-76
2021/06/29 09:33:13;;;;;;;57.15;42.08;;;20.80;96.20;;;;;;5072756;28;20051;-75
2021/06/29 09:35:41;;;;;;;54.97;41.70;;;21.00;96.10;;;;;;5073391;28;20021;-73
2021/06/29 09:38:08;;;;;;;51.28;37.95;;;21.10;95.60;;;;;;5071816;28;20032;-74
2021/06/29 09:40:36;;;;;;;45.25;37.53;;;21.10;95.10;;;;;;5073245;28;20108;-75
2021/06/29 09:43:14;;;;;;;45.95;36.90;;;21.20;94.80;;;;;;5072121;28;20107;-76
2021/06/29 09:45:51;;;;;;;48.35;36.55;;;21.20;94.50;;;;;;5073427;28;20033;-74
2021/06/29 09:48:26;;;;;;;47.13;36.72;;;21.20;94.40;;;;;;5073286;28;20104;-75
2021/06/29 09:50:54;;;;;;;44.50;36.53;;;21.30;94.20;;;;;;5073279;28;20028;-75
2021/06/29 09:53:26;;;;;;;40.90;32.97;;;21.30;93.90;;;;;;5072133;28;20078;-75
2021/06/29 09:56:01;;;;;;;42.10;34.72;;;21.40;93.90;;;;;;5071375;28;20407;-76
2021/06/29 09:58:28;;;;;;;41.53;34.05;;;21.50;93.50;;;;;;5071891;28;20017;-78
2021/06/29 10:01:00;;;;;;;41.90;33.83;;;21.50;93.40;;;;;;5051018;28;20024;-75
2021/06/29 10:03:29;;;;;;;38.47;32.53;;;21.60;92.90;;;;;;5072052;28;20074;-76
2021/06/29 10:05:56;;;;;;;36.05;30.38;;;21.70;92.60;;;;;;5070486;28;20488;-75
2021/06/29 10:08:25;;;;;;;37.38;31.33;;;21.80;92.50;;;;;;5074931;28;20396;-74
2021/06/29 10:11:08;;;;;;;39.50;31.25;;;21.80;92.00;;;;;;5075086;28;20032;-76
2021/06/29 10:13:59;;;;;;;37.25;30.98;;;21.90;91.80;;;;;;5075288;28;20016;-74
2021/06/29 10:16:32;;;;;;;36.50;29.27;;;21.90;91.50;;;;;;5076389;28;20484;-77
2021/06/29 10:21:28;;;;;;;36.78;27.67;;;22.10;91.70;;;;;;5076368;28;20052;-77
2021/06/29 10:23:58;;;;;;;32.95;28.70;;;22.20;91.60;;;;;;5075136;28;20491;-77
2021/06/29 10:26:25;;;;;;;32.15;27.85;;;22.20;91.20;;;;;;5074839;28;20082;-76
2021/06/29 10:28:52;;;;;;;33.13;27.33;;;22.20;91.00;;;;;;5075883;28;20035;-76
2021/06/29 10:31:21;;;;;;;35.75;30.08;;;22.20;90.90;;;;;;5058187;28;20029;-74
2021/06/29 10:33:47;;;;;;;33.70;28.63;;;22.20;90.60;;;;;;5074646;28;20024;-74
2021/06/29 10:36:14;;;;;;;30.77;26.77;;;22.10;90.60;;;;;;5074667;28;20115;-74
2021/06/29 10:38:40;;;;;;;30.58;25.98;;;22.20;90.70;;;;;;5074510;28;20052;-73
2021/06/29 10:41:06;;;;;;;27.90;23.52;;;22.30;90.60;;;;;;5058493;28;20148;-73
2021/06/29 10:43:37;;;;;;;25.27;21.98;;;22.40;90.60;;;;;;5074648;28;20021;-73
2021/06/29 10:46:02;;;;;;;28.17;23.48;;;22.60;90.50;;;;;;5057762;28;20388;-75
2021/06/29 10:48:31;;;;;;;26.20;22.33;;;22.70;90.30;;;;;;5074630;28;20061;-73
2021/06/29 10:50:59;;;;;;;24.67;21.98;;;22.80;90.00;;;;;;5074649;28;20391;-74
2021/06/29 10:53:36;;;;;;;25.08;22.38;;;22.90;89.40;;;;;;5074416;28;20464;-73
2021/06/29 10:56:08;;;;;;;26.40;23.00;;;23.00;89.00;;;;;;5075623;28;20492;-76
2021/06/29 10:58:38;;;;;;;28.27;24.67;;;23.10;88.30;;;;;;5075607;28;20023;-75
2021/06/29 11:01:26;;;;;;;31.45;26.13;;;23.10;87.40;;;;;;5075268;28;20526;-72
2021/06/29 11:03:53;;;;;;;27.15;23.83;;;23.20;87.30;;;;;;5074804;28;20403;-75
2021/06/29 11:06:48;;;;;;;26.75;23.85;;;23.20;86.50;;;;;;5074188;28;20373;-73
2021/06/29 11:09:19;;;;;;;27.48;23.42;;;23.20;85.30;;;;;;5061213;28;20032;-73
2021/06/29 11:12:21;;;;;;;22.67;19.92;;;23.30;86.30;;;;;;5074763;28;20372;-74
2021/06/29 11:14:48;;;;;;;23.02;20.63;;;23.50;85.00;;;;;;5072885;28;20388;-75
2021/06/29 11:17:16;;;;;;;20.48;18.38;;;23.70;84.60;;;;;;5057113;28;20025;-74
2021/06/29 11:20:17;;;;;;;30.27;18.88;;;23.90;85.10;;;;;;5073659;28;20529;-74
2021/06/29 11:22:51;;;;;;;19.70;16.27;;;24.30;85.10;;;;;;5032090;28;20044;-75
2021/06/29 11:25:40;;;;;;;16.88;14.30;;;24.40;85.30;;;;;;5073259;28;20372;-74
2021/06/29 11:28:09;;;;;;;15.63;13.93;;;24.50;84.50;;;;;;5073237;28;20028;-73
2021/06/29 11:30:53;;;;;;;14.68;11.98;;;24.60;84.40;;;;;;5074717;28;20028;-75
2021/06/29 11:33:36;;;;;;;;;;;24.80;82.90;;;;;;5074527;28;20055;-75
2021/06/29 11:36:04;;;;;;;12.90;11.60;;;25.00;82.70;;;;;;5073556;28;19957;-75
2021/06/29 11:38:41;;;;;;;14.55;12.15;;;25.00;82.60;;;;;;5073360;28;20455;-74
2021/06/29 11:41:27;;;;;;;14.18;12.43;;;25.10;81.20;;;;;;5074629;28;20063;-74
2021/06/29 11:43:59;;;;;;;13.77;11.55;;;25.10;80.30;;;;;;5074719;28;20020;-76
2021/06/29 11:47:00;;;;;;;13.63;11.93;;;25.10;80.10;;;;;;5074867;28;20028;-75
2021/06/29 11:49:27;;;;;;;12.85;10.73;;;25.20;79.30;;;;;;5074657;28;20028;-74
2021/06/29 11:51:53;;;;;;;12.73;11.38;;;25.30;79.50;;;;;;5074543;28;20021;-75
2021/06/29 11:54:37;;;;;;;12.32;10.73;;;25.40;79.20;;;;;;5074479;28;20026;-75
2021/06/29 11:57:27;;;;;;;12.85;10.45;;;25.50;78.00;;;;;;5073065;28;20024;-74
2021/06/29 12:00:19;;;;;;;10.43;9.32;;;25.70;77.20;;;;;;5073789;28;20029;-75
2021/06/29 12:02:47;;;;;;;9.98;8.45;;;25.90;76.60;;;;;;5078681;28;20020;-75
2021/06/29 12:05:17;;;;;;;10.20;8.23;;;26.10;76.80;;;;;;5073399;28;20033;-76
2021/06/29 12:07:44;;;;;;;11.73;8.88;;;26.30;76.20;;;;;;5073926;28;20100;-74
2021/06/29 12:10:18;;;;;;;10.73;8.15;;;26.60;76.20;;;;;;5072713;28;20496;-75
2021/06/29 12:12:47;;;;;;;;;;;26.80;75.40;;;;;;5074229;28;20050;-74
2021/06/29 12:15:17;;;;;;;12.25;8.38;;;27.00;75.10;;;;;;5073907;28;20375;-75
2021/06/29 12:17:49;;;;;;;10.50;8.70;;;27.10;74.80;;;;;;5074224;28;20031;-75
2021/06/29 12:20:18;;;;;;;9.13;7.57;;;27.10;73.50;;;;;;5073525;28;20097;-75
2021/06/29 12:22:45;;;;;;;10.80;7.82;;;27.10;72.80;;;;;;5072943;28;20041;-76
2021/06/29 12:25:31;;;;;;;8.95;7.50;;;27.10;72.30;;;;;;5038652;28;20029;-75
2021/06/29 12:28:00;;;;;;;8.27;7.20;;;27.20;70.80;;;;;;5068975;28;20087;-75
2021/06/29 12:30:48;;;;;;;8.60;6.95;;;27.20;70.40;;;;;;5053415;28;20136;-73
2021/06/29 12:33:24;;;;;;;9.00;7.40;;;27.20;69.50;;;;;;5053471;28;20388;-74
2021/06/29 12:35:55;;;;;;;9.95;7.72;;;27.20;69.30;;;;;;5053536;28;20477;-75